createdAt,value
2018-12-17T00:00:22.461Z,3.72
2018-12-17T00:02:52.035Z,3.77
2018-12-17T00:05:21.717Z,3.76
2018-12-17T00:07:50.945Z,3.78
2018-12-17T00:10:21.175Z,3.76
2018-12-17T00:12:50.554Z,3.75
2018-12-17T00:15:20.011Z,3.73
2018-12-17T00:17:49.375Z,3.75
2018-12-17T00:20:18.692Z,3.77
2018-12-17T00:22:47.865Z,3.80
2018-12-17T00:25:17.095Z,3.79
2018-12-17T00:27:46.351Z,3.78
2018-12-17T00:30:15.706Z,3.82
2018-12-17T00:32:45.022Z,3.85
2018-12-17T00:35:14.179Z,3.85
2018-12-17T00:37:43.425Z,3.88
2018-12-17T00:40:13.181Z,3.82
2018-12-17T00:42:43.278Z,3.79
2018-12-17T00:45:12.587Z,3.78
2018-12-17T00:47:41.923Z,3.74
2018-12-17T00:50:11.231Z,3.75
2018-12-17T00:52:40.416Z,3.76
2018-12-17T00:55:09.657Z,3.76
2018-12-17T00:57:38.817Z,3.76
2018-12-17T01:00:10.020Z,3.77
2018-12-17T01:02:39.306Z,3.79
2018-12-17T01:05:08.597Z,3.78
2018-12-17T01:07:37.900Z,3.78
2018-12-17T01:10:09.337Z,3.83
2018-12-17T01:12:38.549Z,3.78
2018-12-17T01:15:08.604Z,3.76
2018-12-17T01:17:37.936Z,3.73
2018-12-17T01:20:07.859Z,3.71
2018-12-17T01:22:37.978Z,3.69
2018-12-17T01:25:07.420Z,3.67
2018-12-17T01:27:36.698Z,3.64
2018-12-17T01:30:06.988Z,3.62
2018-12-17T01:32:36.380Z,3.60
2018-12-17T01:35:06.221Z,3.58
2018-12-17T01:37:35.741Z,3.52
2018-12-17T01:40:05.398Z,3.51
2018-12-17T01:42:34.651Z,3.48
2018-12-17T01:45:04.101Z,3.48
2018-12-17T01:47:33.235Z,3.46
2018-12-17T01:50:02.399Z,3.43
2018-12-17T01:52:31.575Z,3.44
2018-12-17T01:55:00.735Z,3.46
2018-12-17T01:57:29.936Z,3.45
2018-12-17T01:59:59.083Z,3.48
2018-12-17T02:02:28.271Z,3.48
2018-12-17T02:04:57.427Z,3.51
2018-12-17T02:07:26.570Z,3.50
2018-12-17T02:09:55.686Z,3.49
2018-12-17T02:12:24.853Z,3.49
2018-12-17T02:14:54.028Z,3.50
2018-12-17T02:17:23.214Z,3.49
2018-12-17T02:19:53.037Z,3.49
2018-12-17T02:22:22.238Z,3.51
2018-12-17T02:24:52.192Z,3.52
2018-12-17T02:27:21.495Z,3.53
2018-12-17T02:29:51.243Z,3.56
2018-12-17T02:32:20.429Z,3.57
2018-12-17T02:34:49.582Z,3.56
2018-12-17T02:37:18.751Z,3.61
2018-12-17T02:39:47.942Z,3.61
2018-12-17T02:42:31.795Z,3.63
2018-12-17T02:45:11.527Z,3.68
2018-12-17T02:47:42.426Z,3.68
2018-12-17T02:50:11.567Z,3.69
2018-12-17T02:52:41.689Z,3.67
2018-12-17T02:55:10.891Z,3.67
2018-12-17T02:57:40.056Z,3.66
2018-12-17T03:00:09.965Z,3.68
2018-12-17T03:02:39.158Z,3.67
2018-12-17T03:05:08.853Z,3.68
2018-12-17T03:07:40.899Z,3.70
2018-12-17T03:10:10.234Z,3.71
2018-12-17T03:12:39.461Z,3.71
2018-12-17T03:15:08.764Z,3.73
2018-12-17T03:17:38.032Z,3.73
2018-12-17T03:20:07.194Z,3.74
2018-12-17T03:22:42.823Z,3.76
2018-12-17T03:25:12.081Z,3.81
2018-12-17T03:27:41.264Z,3.82
2018-12-17T03:30:10.659Z,3.82
2018-12-17T03:32:39.888Z,3.87
2018-12-17T03:35:09.143Z,3.90
2018-12-17T03:37:38.646Z,3.94
2018-12-17T03:40:07.975Z,3.95
2018-12-17T03:42:37.107Z,3.96
2018-12-17T03:45:06.550Z,3.96
2018-12-17T03:47:35.747Z,3.98
2018-12-17T03:50:06.027Z,4.01
2018-12-17T03:52:35.417Z,3.98
2018-12-17T03:55:04.732Z,3.96
2018-12-17T03:57:33.913Z,3.95
2018-12-17T04:00:03.254Z,3.94
2018-12-17T04:02:32.460Z,3.97
2018-12-17T04:05:02.133Z,3.96
2018-12-17T04:07:31.406Z,3.92
2018-12-17T04:10:00.770Z,3.92
2018-12-17T04:12:30.093Z,3.93
2018-12-17T04:15:00.092Z,3.91
2018-12-17T04:17:29.368Z,3.90
2018-12-17T04:19:58.555Z,3.97
2018-12-17T04:22:27.914Z,3.95
2018-12-17T04:24:57.150Z,3.92
2018-12-17T04:27:26.290Z,3.97
2018-12-17T04:29:55.832Z,4.01
2018-12-17T04:32:25.007Z,3.98
2018-12-17T04:34:54.293Z,3.98
2018-12-17T04:37:23.460Z,4.00
2018-12-17T04:40:08.998Z,4.02
2018-12-17T04:42:42.141Z,4.04
2018-12-17T04:45:11.509Z,4.04
2018-12-17T04:47:40.671Z,4.02
2018-12-17T04:50:09.978Z,4.05
2018-12-17T04:52:39.159Z,4.07
2018-12-17T04:55:08.402Z,4.11
2018-12-17T04:57:37.876Z,4.13
2018-12-17T05:00:08.576Z,4.14
2018-12-17T05:02:37.712Z,4.19
2018-12-17T05:05:07.007Z,4.23
2018-12-17T05:07:36.654Z,4.24
2018-12-17T05:10:06.519Z,4.25
2018-12-17T05:12:35.721Z,4.27
2018-12-17T05:15:05.604Z,4.31
2018-12-17T05:17:34.696Z,4.38
2018-12-17T05:20:03.982Z,4.41
2018-12-17T05:22:33.205Z,4.44
2018-12-17T05:25:02.575Z,4.46
2018-12-17T05:27:31.924Z,4.51
2018-12-17T05:30:02.039Z,4.55
2018-12-17T05:32:31.508Z,4.60
2018-12-17T05:35:00.823Z,4.66
2018-12-17T05:37:30.063Z,4.73
2018-12-17T05:39:59.302Z,4.70
2018-12-17T05:42:29.422Z,4.71
2018-12-17T05:44:58.786Z,4.71
2018-12-17T05:47:27.962Z,4.69
2018-12-17T05:49:57.210Z,4.72
2018-12-17T05:52:26.414Z,4.69
2018-12-17T05:54:55.719Z,4.64
2018-12-17T05:57:24.993Z,4.67
2018-12-17T05:59:54.640Z,4.72
2018-12-17T06:02:25.049Z,4.72
2018-12-17T06:04:54.259Z,4.77
2018-12-17T06:07:23.613Z,4.78
2018-12-17T06:09:53.024Z,4.81
2018-12-17T06:12:22.255Z,4.77
2018-12-17T06:14:51.360Z,4.74
2018-12-17T06:17:20.567Z,4.77
2018-12-17T06:19:50.098Z,4.77
2018-12-17T06:22:19.454Z,4.78
2018-12-17T06:24:49.274Z,4.77
2018-12-17T06:27:18.599Z,4.75
2018-12-17T06:29:48.913Z,4.75
2018-12-17T06:32:18.556Z,4.74
2018-12-17T06:34:48.777Z,4.81
2018-12-17T06:37:18.176Z,4.80
2018-12-17T06:39:47.776Z,4.77
2018-12-17T06:42:17.110Z,4.78
2018-12-17T06:44:46.781Z,4.75
2018-12-17T06:47:16.115Z,4.72
2018-12-17T06:49:45.460Z,4.73
2018-12-17T06:52:14.820Z,4.73
2018-12-17T06:54:44.262Z,4.74
2018-12-17T06:57:13.598Z,4.73
2018-12-17T06:59:43.279Z,4.75
2018-12-17T07:02:13.782Z,4.76
2018-12-17T07:04:43.137Z,4.79
2018-12-17T07:07:12.983Z,4.79
2018-12-17T07:09:42.274Z,4.81
2018-12-17T07:12:11.575Z,4.77
2018-12-17T07:14:41.066Z,4.79
2018-12-17T07:17:10.325Z,4.82
2018-12-17T07:19:39.518Z,4.81
2018-12-17T07:22:08.711Z,4.82
2018-12-17T07:24:38.227Z,4.84
2018-12-17T07:27:07.531Z,4.85
2018-12-17T07:29:37.225Z,4.88
2018-12-17T07:32:06.448Z,4.89
2018-12-17T07:34:35.845Z,4.92
2018-12-17T07:37:05.396Z,4.93
2018-12-17T07:39:34.862Z,4.94
2018-12-17T07:42:04.170Z,4.92
2018-12-17T07:44:34.507Z,4.92
2018-12-17T07:47:03.772Z,4.95
2018-12-17T07:49:32.987Z,4.95
2018-12-17T07:52:03.085Z,5.01
2018-12-17T07:54:32.364Z,5.04
2018-12-17T07:57:01.585Z,5.07
2018-12-17T07:59:30.842Z,5.07
2018-12-17T08:01:59.998Z,5.10
2018-12-17T08:04:29.430Z,5.13
2018-12-17T08:06:58.633Z,5.14
2018-12-17T08:09:27.911Z,5.20
2018-12-17T08:11:57.469Z,5.17
2018-12-17T08:14:26.789Z,5.21
2018-12-17T08:16:56.604Z,5.25
2018-12-17T08:19:25.793Z,5.25
2018-12-17T08:21:54.984Z,5.28
2018-12-17T08:24:24.234Z,5.30
2018-12-17T08:26:53.391Z,5.32
2018-12-17T08:29:22.642Z,5.37
2018-12-17T08:31:51.840Z,5.37
2018-12-17T08:34:21.094Z,5.39
2018-12-17T08:36:51.008Z,5.39
2018-12-17T08:39:20.207Z,5.42
2018-12-17T08:41:49.507Z,5.42
2018-12-17T08:44:18.823Z,5.43
2018-12-17T08:46:48.272Z,5.45
2018-12-17T08:49:17.447Z,5.47
2018-12-17T08:51:46.690Z,5.51
2018-12-17T08:54:15.905Z,5.55
2018-12-17T08:56:45.172Z,5.58
2018-12-17T08:59:14.505Z,5.57
2018-12-17T09:01:43.848Z,5.59
2018-12-17T09:04:13.091Z,5.63
2018-12-17T09:06:42.290Z,5.61
2018-12-17T09:09:11.531Z,5.68
2018-12-17T09:11:40.708Z,5.68
2018-12-17T09:14:09.996Z,5.70
2018-12-17T09:16:39.209Z,5.71
2018-12-17T09:19:08.497Z,5.73
2018-12-17T09:21:38.021Z,5.72
2018-12-17T09:24:07.199Z,5.75
2018-12-17T09:26:36.467Z,5.74
2018-12-17T09:29:05.848Z,5.75
2018-12-17T09:31:35.408Z,5.78
2018-12-17T09:34:04.580Z,5.82
2018-12-17T09:36:33.809Z,5.84
2018-12-17T09:39:03.012Z,5.88
2018-12-17T09:41:32.177Z,5.86
2018-12-17T09:44:01.513Z,5.89
2018-12-17T09:46:30.745Z,5.89
2018-12-17T09:49:00.005Z,5.89
2018-12-17T09:51:30.233Z,5.88
2018-12-17T09:53:59.531Z,5.91
2018-12-17T09:56:31.870Z,5.92
2018-12-17T09:59:01.160Z,5.95
2018-12-17T10:01:30.615Z,5.97
2018-12-17T10:03:59.851Z,6.02
2018-12-17T10:06:29.316Z,6.06
2018-12-17T10:08:58.878Z,6.13
2018-12-17T10:11:28.123Z,6.18
2018-12-17T10:13:57.634Z,6.25
2018-12-17T10:16:28.355Z,6.30
2018-12-17T10:18:57.852Z,6.32
2018-12-17T10:21:27.056Z,6.37
2018-12-17T10:23:57.086Z,6.39
2018-12-17T10:26:26.814Z,6.42
2018-12-17T10:28:56.134Z,6.50
2018-12-17T10:31:25.635Z,6.53
2018-12-17T10:33:54.821Z,6.54
2018-12-17T10:36:23.988Z,6.55
2018-12-17T10:38:53.223Z,6.60
2018-12-17T10:41:22.477Z,6.64
2018-12-17T10:43:52.513Z,6.71
2018-12-17T10:46:22.042Z,6.82
2018-12-17T10:48:51.220Z,6.86
2018-12-17T10:51:20.828Z,6.97
2018-12-17T10:53:50.068Z,7.02
2018-12-17T10:56:19.290Z,7.10
2018-12-17T10:58:48.483Z,7.15
2018-12-17T11:01:23.252Z,7.22
2018-12-17T11:03:56.454Z,7.31
2018-12-17T11:06:26.655Z,7.42
2018-12-17T11:08:55.882Z,7.46
2018-12-17T11:11:25.102Z,7.52
2018-12-17T11:13:54.269Z,7.57
2018-12-17T11:16:23.578Z,7.64
2018-12-17T11:18:52.733Z,7.68
2018-12-17T11:21:21.992Z,7.67
2018-12-17T11:23:51.255Z,7.71
2018-12-17T11:26:20.530Z,7.79
2018-12-17T11:28:49.723Z,7.80
2018-12-17T11:31:19.142Z,7.81
2018-12-17T11:33:48.433Z,7.84
2018-12-17T11:36:17.729Z,7.79
2018-12-17T11:38:47.101Z,7.88
2018-12-17T11:41:16.373Z,7.90
2018-12-17T11:43:52.715Z,7.97
2018-12-17T11:46:22.039Z,7.93
2018-12-17T11:48:51.314Z,7.92
2018-12-17T11:51:20.694Z,7.88
2018-12-17T11:53:50.329Z,7.87
2018-12-17T11:56:37.956Z,7.85
2018-12-17T11:59:07.171Z,7.85
2018-12-17T12:01:36.507Z,7.82
2018-12-17T12:04:05.864Z,7.81
2018-12-17T12:06:35.360Z,7.82
2018-12-17T12:09:05.747Z,7.84
2018-12-17T12:11:35.153Z,7.87
2018-12-17T12:14:04.501Z,7.94
2018-12-17T12:16:33.820Z,7.97
2018-12-17T12:19:03.038Z,7.92
2018-12-17T12:21:32.349Z,7.89
2018-12-17T12:24:01.921Z,7.93
2018-12-17T12:26:32.041Z,7.86
2018-12-17T12:29:02.479Z,7.85
2018-12-17T12:31:32.507Z,7.87
2018-12-17T12:34:01.906Z,7.85
2018-12-17T12:36:31.533Z,7.87
2018-12-17T12:39:03.664Z,7.85
2018-12-17T12:41:33.047Z,7.85
2018-12-17T12:44:08.696Z,7.84
2018-12-17T12:46:33.486Z,7.89
2018-12-17T12:49:05.447Z,7.99
2018-12-17T12:51:34.570Z,7.95
2018-12-17T12:54:03.766Z,7.95
2018-12-17T12:56:33.949Z,7.91
2018-12-17T12:59:03.272Z,7.90
2018-12-17T13:01:33.642Z,7.84
2018-12-17T13:04:03.697Z,7.76
2018-12-17T13:06:33.287Z,7.72
2018-12-17T13:09:04.289Z,7.73
2018-12-17T13:11:34.610Z,7.71
2018-12-17T13:14:04.493Z,7.72
2018-12-17T13:16:34.394Z,7.69
2018-12-17T13:19:06.796Z,7.65
2018-12-17T13:21:36.038Z,7.66
2018-12-17T13:24:05.616Z,7.62
2018-12-17T13:26:34.829Z,7.69
2018-12-17T13:29:05.172Z,7.61
2018-12-17T13:31:34.406Z,7.63
2018-12-17T13:34:03.724Z,7.58
2018-12-17T13:36:33.666Z,7.54
2018-12-17T13:39:04.317Z,7.52
2018-12-17T13:41:34.528Z,7.50
2018-12-17T13:44:04.075Z,7.50
2018-12-17T13:46:33.448Z,7.46
2018-12-17T13:49:03.119Z,7.45
2018-12-17T13:51:34.135Z,7.49
2018-12-17T13:54:05.998Z,7.48
2018-12-17T13:56:35.627Z,7.46
2018-12-17T13:59:04.956Z,7.45
2018-12-17T14:01:34.323Z,7.43
2018-12-17T14:04:04.119Z,7.44
2018-12-17T14:06:33.578Z,7.43
2018-12-17T14:09:03.344Z,7.44
2018-12-17T14:11:32.686Z,7.43
2018-12-17T14:14:02.018Z,7.47
2018-12-17T14:16:37.504Z,7.50
2018-12-17T14:19:11.985Z,7.54
2018-12-17T14:21:46.418Z,7.56
2018-12-17T14:24:17.543Z,7.61
2018-12-17T14:26:46.990Z,7.60
2018-12-17T14:29:16.392Z,7.63
2018-12-17T14:31:45.939Z,7.69
2018-12-17T14:34:15.416Z,7.72
2018-12-17T14:36:44.738Z,7.69
2018-12-17T14:39:14.113Z,7.75
2018-12-17T14:41:43.586Z,7.72
2018-12-17T14:44:18.518Z,7.72
2018-12-17T14:46:52.915Z,7.70
2018-12-17T14:49:22.142Z,7.73
2018-12-17T14:51:51.307Z,7.73
2018-12-17T14:54:20.686Z,7.75
2018-12-17T14:56:50.021Z,7.73
2018-12-17T14:59:19.689Z,7.74
2018-12-17T15:01:48.952Z,7.78
2018-12-17T15:04:18.177Z,7.80
2018-12-17T15:06:47.389Z,7.85
2018-12-17T15:09:16.715Z,7.87
2018-12-17T15:11:46.633Z,7.95
2018-12-17T15:14:15.974Z,7.94
2018-12-17T15:16:45.245Z,7.93
2018-12-17T15:19:14.499Z,7.95
2018-12-17T15:21:43.873Z,7.98
2018-12-17T15:24:14.038Z,8.06
2018-12-17T15:26:43.349Z,8.01
2018-12-17T15:29:13.552Z,8.01
2018-12-17T15:31:43.373Z,8.01
2018-12-17T15:34:12.600Z,8.00
2018-12-17T15:36:42.025Z,7.98
2018-12-17T15:39:11.209Z,7.98
2018-12-17T15:41:40.564Z,7.98
2018-12-17T15:44:12.127Z,7.99
2018-12-17T15:46:41.543Z,8.00
2018-12-17T15:49:11.490Z,8.00
2018-12-17T15:51:40.803Z,7.98
2018-12-17T15:54:10.151Z,8.00
2018-12-17T15:56:40.116Z,7.98
2018-12-17T15:59:10.366Z,7.97
2018-12-17T16:01:39.700Z,7.97
2018-12-17T16:04:09.300Z,8.01
2018-12-17T16:06:38.809Z,8.03
2018-12-17T16:09:09.186Z,8.01
2018-12-17T16:11:38.498Z,8.07
2018-12-17T16:14:08.257Z,8.02
2018-12-17T16:16:37.549Z,8.04
2018-12-17T16:19:07.055Z,8.08
2018-12-17T16:21:36.461Z,8.06
2018-12-17T16:24:05.938Z,8.04
2018-12-17T16:26:35.649Z,8.07
2018-12-17T16:29:05.293Z,8.04
2018-12-17T16:31:34.819Z,8.03
2018-12-17T16:34:04.438Z,8.18
2018-12-17T16:36:34.203Z,8.22
2018-12-17T16:39:03.957Z,8.16
2018-12-17T16:41:33.399Z,8.09
2018-12-17T16:44:02.726Z,8.08
2018-12-17T16:46:32.082Z,8.04
2018-12-17T16:49:01.427Z,8.02
2018-12-17T16:51:31.007Z,8.01
2018-12-17T16:54:00.753Z,7.99
2018-12-17T16:56:30.077Z,7.94
2018-12-17T16:58:59.633Z,7.91
2018-12-17T17:01:28.922Z,7.91
2018-12-17T17:03:58.445Z,7.89
2018-12-17T17:06:27.864Z,7.87
2018-12-17T17:08:58.858Z,7.81
2018-12-17T17:11:28.593Z,7.77
2018-12-17T17:13:57.839Z,7.75
2018-12-17T17:16:27.310Z,7.70
2018-12-17T17:18:56.820Z,7.69
2018-12-17T17:21:26.207Z,7.61
2018-12-17T17:23:55.605Z,7.59
2018-12-17T17:26:24.958Z,7.57
2018-12-17T17:28:54.589Z,7.54
2018-12-17T17:31:24.129Z,7.52
2018-12-17T17:33:53.441Z,7.49
2018-12-17T17:36:22.966Z,7.46
2018-12-17T17:38:52.520Z,7.43
2018-12-17T17:41:22.281Z,7.40
2018-12-17T17:43:51.894Z,7.37
2018-12-17T17:46:21.269Z,7.37
2018-12-17T17:48:50.675Z,7.35
2018-12-17T17:51:20.736Z,7.29
2018-12-17T17:53:50.207Z,7.27
2018-12-17T17:56:19.484Z,7.24
2018-12-17T17:58:48.902Z,7.23
2018-12-17T18:01:18.512Z,7.22
2018-12-17T18:03:47.767Z,7.17
2018-12-17T18:06:17.765Z,7.17
2018-12-17T18:08:47.373Z,7.12
2018-12-17T18:11:16.823Z,7.12
2018-12-17T18:13:46.637Z,7.07
2018-12-17T18:16:15.964Z,7.04
2018-12-17T18:18:45.494Z,6.99
2018-12-17T18:21:15.010Z,6.95
2018-12-17T18:23:47.207Z,6.94
2018-12-17T18:26:16.503Z,6.92
2018-12-17T18:28:46.764Z,6.92
2018-12-17T18:31:16.185Z,6.92
2018-12-17T18:33:45.492Z,6.98
2018-12-17T18:36:14.854Z,6.95
2018-12-17T18:38:44.094Z,6.96
2018-12-17T18:41:13.502Z,6.97
2018-12-17T18:43:42.687Z,6.96
2018-12-17T18:46:12.033Z,6.96
2018-12-17T18:48:41.403Z,6.94
2018-12-17T18:51:19.213Z,6.90
2018-12-17T18:54:04.729Z,6.86
2018-12-17T18:56:37.505Z,6.80
2018-12-17T18:59:06.899Z,6.77
2018-12-17T19:01:36.231Z,6.75
2018-12-17T19:04:05.471Z,6.77
2018-12-17T19:06:34.891Z,6.73
2018-12-17T19:09:05.831Z,6.74
2018-12-17T19:11:35.207Z,6.81
2018-12-17T19:14:05.104Z,6.89
2018-12-17T19:16:47.025Z,6.92
2018-12-17T19:19:18.172Z,6.99
2018-12-17T19:21:50.087Z,6.99
2018-12-17T19:24:21.070Z,7.03
2018-12-17T19:26:51.229Z,7.03
2018-12-17T19:29:27.593Z,7.04
2018-12-17T19:31:59.454Z,7.04
2018-12-17T19:34:30.441Z,7.06
2018-12-17T19:37:01.317Z,7.04
2018-12-17T19:39:30.669Z,7.03
2018-12-17T19:42:00.094Z,7.04
2018-12-17T19:44:32.223Z,7.03
2018-12-17T19:47:02.242Z,6.98
2018-12-17T19:49:33.443Z,6.92
2018-12-17T19:52:03.618Z,6.84
2018-12-17T19:57:04.528Z,6.72
2018-12-17T19:59:34.827Z,6.70
2018-12-17T20:02:07.457Z,6.71
2018-12-17T20:04:37.767Z,6.72
2018-12-17T20:07:07.822Z,6.72
2018-12-17T20:09:38.032Z,6.68
2018-12-17T20:12:08.042Z,6.68
2018-12-17T20:14:38.186Z,6.65
2018-12-17T20:17:09.871Z,6.67
2018-12-17T20:19:39.678Z,6.68
2018-12-17T20:22:09.250Z,6.72
2018-12-17T20:24:39.126Z,6.79
2018-12-17T20:27:08.297Z,6.84
2018-12-17T20:29:37.691Z,6.86
2018-12-17T20:32:06.827Z,6.90
2018-12-17T20:34:36.118Z,6.97
2018-12-17T20:37:05.400Z,7.00
2018-12-17T20:39:34.572Z,7.02
2018-12-17T20:42:04.448Z,7.04
2018-12-17T20:44:35.652Z,7.05
2018-12-17T20:47:05.077Z,7.06
2018-12-17T20:49:34.284Z,7.07
2018-12-17T20:52:03.568Z,7.06
2018-12-17T20:54:33.220Z,7.03
2018-12-17T20:57:02.396Z,6.98
2018-12-17T20:59:33.318Z,6.97
2018-12-17T21:02:02.617Z,6.93
2018-12-17T21:04:31.912Z,6.89
2018-12-17T21:07:02.270Z,6.86
2018-12-17T21:09:31.587Z,6.82
2018-12-17T21:12:00.937Z,6.79
2018-12-17T21:14:30.187Z,6.74
2018-12-17T21:17:00.982Z,6.73
2018-12-17T21:19:30.356Z,6.78
2018-12-17T21:21:59.782Z,6.80
2018-12-17T21:24:29.138Z,6.80
2018-12-17T21:26:58.284Z,6.81
2018-12-17T21:29:27.583Z,6.77
2018-12-17T21:31:56.780Z,6.73
2018-12-17T21:34:25.949Z,6.69
2018-12-17T21:36:55.106Z,6.62
2018-12-17T21:39:24.311Z,6.55
2018-12-17T21:41:54.236Z,6.49
2018-12-17T21:44:23.588Z,6.43
2018-12-17T21:46:53.092Z,6.37
2018-12-17T21:49:22.360Z,6.30
2018-12-17T21:51:51.880Z,6.23
2018-12-17T21:54:21.050Z,6.18
2018-12-17T21:56:50.333Z,6.15
2018-12-17T21:59:19.587Z,6.07
2018-12-17T22:01:48.837Z,6.03
2018-12-17T22:04:18.030Z,5.98
2018-12-17T22:06:47.296Z,5.94
2018-12-17T22:09:16.487Z,5.90
2018-12-17T22:11:45.983Z,5.85
2018-12-17T22:14:15.170Z,5.82
2018-12-17T22:16:44.454Z,5.80
2018-12-17T22:19:13.734Z,5.80
2018-12-17T22:21:43.010Z,5.79
2018-12-17T22:24:13.167Z,5.82
2018-12-17T22:26:42.506Z,5.84
2018-12-17T22:29:11.792Z,5.90
2018-12-17T22:31:41.043Z,5.93
2018-12-17T22:34:10.352Z,5.98
2018-12-17T22:36:39.874Z,6.02
2018-12-17T22:39:09.049Z,6.05
2018-12-17T22:41:38.262Z,6.10
2018-12-17T22:44:07.398Z,6.13
2018-12-17T22:46:36.665Z,6.16
2018-12-17T22:49:05.904Z,6.18
2018-12-17T22:51:35.176Z,6.21
2018-12-17T22:54:04.427Z,6.26
2018-12-17T22:56:33.565Z,6.28
2018-12-17T22:59:03.463Z,6.30
2018-12-17T23:01:32.731Z,6.30
2018-12-17T23:04:01.937Z,6.32
2018-12-17T23:06:31.402Z,6.33
2018-12-17T23:09:07.164Z,6.35
2018-12-17T23:11:52.854Z,6.36
2018-12-17T23:14:33.315Z,6.36
2018-12-17T23:17:14.078Z,6.39
2018-12-17T23:19:47.038Z,6.39
2018-12-17T23:22:17.316Z,6.43
2018-12-17T23:24:46.673Z,6.46
2018-12-17T23:27:15.847Z,6.49
2018-12-17T23:29:45.226Z,6.50
2018-12-17T23:32:14.580Z,6.49
2018-12-17T23:34:43.846Z,6.49
2018-12-17T23:37:12.976Z,6.50
2018-12-17T23:39:42.202Z,6.48
2018-12-17T23:42:12.162Z,6.43
2018-12-17T23:44:41.394Z,6.37
2018-12-17T23:47:10.552Z,6.30
2018-12-17T23:49:39.811Z,6.26
2018-12-17T23:52:08.974Z,6.24
2018-12-17T23:54:38.311Z,6.23
2018-12-17T23:57:07.521Z,6.22
2018-12-17T23:59:36.703Z,6.23
